Cruzeiro Do Canal — CSVG — position and weather

sailwx.info

Track history (hours):
 
Tides and Currents Weather Stations Pressure Air Temp Water Temp Dewpoint Dewpoint Depression Visibility Wind Speed Wind Dir Waves Ship Positions

Cruzeiro Do Canal

Last reported at 2018-Feb-24 18:00 UTC. Time now 2018-Feb-24 18:27 UTC.
Position N 38°32' W 028°37'.

Length 32 m; draft 2.3 m.

Type: Passenger vessel. MMSI: 204701250.

Date/timePositionNaut miles runAvg speedWind from/ knotsBaromVisibWave heightAir tempDewpointWater temp
2018-Feb-24 18:00N 38°32' W 028°37'0 0.0
2018-Feb-24 17:30N 38°32' W 028°37'0 0.0
2018-Feb-24 17:01N 38°32' W 028°37'0 0.2
2018-Feb-24 16:30N 38°32' W 028°37'4 8.6
2018-Feb-24 16:00N 38°32' W 028°32'3 6.3
2018-Feb-24 15:30N 38°33' W 028°36'1 2.3
2018-Feb-24 15:00N 38°32' W 028°37'0 0.0
2018-Feb-24 14:30N 38°32' W 028°37'0 0.0
2018-Feb-24 14:00N 38°32' W 028°37'0 0.0
2018-Feb-24 13:30N 38°32' W 028°37'0 0.0
2018-Feb-24 13:00N 38°32' W 028°37'4 8.4
2018-Feb-24 12:30N 38°32' W 028°32'2 4.2
2018-Feb-24 12:00N 38°33' W 028°34'2 4.5
2018-Feb-24 11:30N 38°32' W 028°37'0 0.0
2018-Feb-24 11:00N 38°32' W 028°37'0 0.0
2018-Feb-24 10:30N 38°32' W 028°37'0 0.0
2018-Feb-24 10:00N 38°32' W 028°37'2 4.3
2018-Feb-24 09:30N 38°32' W 028°35'2 4.2
2018-Feb-24 09:00N 38°32' W 028°32'4 8.7
2018-Feb-24 08:30N 38°32' W 028°37'0 0.0
2018-Feb-23 19:32N 38°32' W 028°37'0 0.2
2018-Feb-23 19:30N 38°32' W 028°37'4 8.5
2018-Feb-23 19:00N 38°32' W 028°32'2 3.5
2018-Feb-23 18:31N 38°32' W 028°34'3 5.2
2018-Feb-23 18:00N 38°32' W 028°37'0 0.0
2018-Feb-23 17:30N 38°32' W 028°37'0 0.0
2018-Feb-23 17:00N 38°32' W 028°37'0 0.0
2018-Feb-23 16:30N 38°32' W 028°37'4 8.5
2018-Feb-23 16:00N 38°32' W 028°32'2 3.9
2018-Feb-23 15:30N 38°32' W 028°34'2 4.8
2018-Feb-23 15:01N 38°32' W 028°37'0 0.0
2018-Feb-23 14:30N 38°32' W 028°37'0 0.0
2018-Feb-23 14:00N 38°32' W 028°37'0 0.0
2018-Feb-23 13:30N 38°32' W 028°37'0 0.2
2018-Feb-23 13:00N 38°32' W 028°37'4 8.6
2018-Feb-23 12:31N 38°32' W 028°32'2 3.2
2018-Feb-23 12:00N 38°32' W 028°34'3 5.2
2018-Feb-23 11:30N 38°32' W 028°37'0 0.0
2018-Feb-23 11:00N 38°32' W 028°37'0 0.0
2018-Feb-23 10:30N 38°32' W 028°37'0 0.0
2018-Feb-23 10:00N 38°32' W 028°37'3 6.3
2018-Feb-23 09:30N 38°33' W 028°33'1 2.8
2018-Feb-23 09:01N 38°32' W 028°32'4 8.5
2018-Feb-23 08:30N 38°32' W 028°37'0 0.1
2018-Feb-23 08:00N 38°32' W 028°37'0 0.0
2018-Feb-22 19:32N 38°32' W 028°37'0 0.0
2018-Feb-22 19:30N 38°32' W 028°37'4 8.5
2018-Feb-22 19:00N 38°32' W 028°32'2 4.2
2018-Feb-22 18:30N 38°33' W 028°34'2 4.4
2018-Feb-22 18:01N 38°32' W 028°37'0 0.0
2018-Feb-22 17:30N 38°32' W 028°37'0 0.0
2018-Feb-22 17:00N 38°32' W 028°37'0 0.1
2018-Feb-22 16:30N 38°32' W 028°37'4 6.8
2018-Feb-22 15:52N 38°32' W 028°32'2 4.3
2018-Feb-22 15:30N 38°32' W 028°34'3 5.6
2018-Feb-22 15:00N 38°32' W 028°37'0 0.0
2018-Feb-22 14:30N 38°32' W 028°37'0 0.0
2018-Feb-22 14:00N 38°32' W 028°37'0 0.0
2018-Feb-22 13:30N 38°32' W 028°37'0 0.0
2018-Feb-22 13:01N 38°32' W 028°37'4 8.4
2018-Feb-22 12:30N 38°32' W 028°32'2 3.6
2018-Feb-22 12:00N 38°32' W 028°34'3 5.3
2018-Feb-22 11:30N 38°32' W 028°37'0 0.0
2018-Feb-22 11:00N 38°32' W 028°37'0 0.0
2018-Feb-22 10:31N 38°32' W 028°37'0 0.0
2018-Feb-22 10:00N 38°32' W 028°37'3 5.6
2018-Feb-22 09:30N 38°32' W 028°34'1 2.9
2018-Feb-22 09:01N 38°32' W 028°32'4 8.6
2018-Feb-22 08:30N 38°32' W 028°37'0 0.3
2018-Feb-22 08:00N 38°32' W 028°37'0 0.0
2018-Feb-21 19:34N 38°32' W 028°37'0 0.6
2018-Feb-21 19:30N 38°32' W 028°37'4 8.5
2018-Feb-21 19:00N 38°32' W 028°32'2 4.6
2018-Feb-21 18:30N 38°32' W 028°35'2 3.9
2018-Feb-21 18:00N 38°32' W 028°37'0 0.0
2018-Feb-21 17:30N 38°32' W 028°37'0 0.0
2018-Feb-21 17:00N 38°32' W 028°37'0 0.0
2018-Feb-21 16:30N 38°32' W 028°37'4 8.4
2018-Feb-21 16:01N 38°32' W 028°32'2 4.1
2018-Feb-21 15:30N 38°32' W 028°35'2 4.2
2018-Feb-21 15:00N 38°32' W 028°37'0 0.0
2018-Feb-21 14:30N 38°32' W 028°37'0 0.0
2018-Feb-21 14:00N 38°32' W 028°37'0 0.0
2018-Feb-21 13:30N 38°32' W 028°37'1 2.5
2018-Feb-21 13:00N 38°33' W 028°36'3 6.7
2018-Feb-21 12:30N 38°32' W 028°32'2 4.7
2018-Feb-21 12:00N 38°32' W 028°35'2 3.9
2018-Feb-21 11:30N 38°32' W 028°37'0 0.0
2018-Feb-21 11:00N 38°32' W 028°37'0 0.0
2018-Feb-21 10:30N 38°32' W 028°37'0 0.8
2018-Feb-21 10:00N 38°32' W 028°37'4 8.0
2018-Feb-21 09:31N 38°32' W 028°32'0 0.4
2018-Feb-21 09:00N 38°32' W 028°32'4 8.1
2018-Feb-21 08:30N 38°32' W 028°37'0 0.1
2018-Feb-21 08:00N 38°32' W 028°37'0 0.0
2018-Feb-20 19:58N 38°32' W 028°37'0 0.1
2018-Feb-20 19:30N 38°32' W 028°37'4 8.5
2018-Feb-20 19:00N 38°32' W 028°32'3 5.2
2018-Feb-20 18:30N 38°32' W 028°35'2 3.4
2018-Feb-20 18:00N 38°32' W 028°37'0 0.0
2018-Feb-20 17:30N 38°32' W 028°37'0 0.0
2018-Feb-20 17:00N 38°32' W 028°37'0 0.0
2018-Feb-20 16:30N 38°32' W 028°37'4 8.4
2018-Feb-20 16:00N 38°32' W 028°32'2 4.1
2018-Feb-20 15:30N 38°33' W 028°34'2 4.3
2018-Feb-20 15:00N 38°32' W 028°37'0 0.0
2018-Feb-20 14:30N 38°32' W 028°37'0 0.0
2018-Feb-20 14:00N 38°32' W 028°37'0 0.0
2018-Feb-20 13:30N 38°32' W 028°37'0 0.4
2018-Feb-20 13:01N 38°32' W 028°37'4 8.6
2018-Feb-20 12:31N 38°32' W 028°32'2 4.8
2018-Feb-20 12:00N 38°32' W 028°35'2 3.7
2018-Feb-20 11:30N 38°32' W 028°37'0 0.0
2018-Feb-20 11:00N 38°32' W 028°37'0 0.0
2018-Feb-20 10:30N 38°32' W 028°37'0 0.0
2018-Feb-20 10:00N 38°32' W 028°37'3 5.8
2018-Feb-20 09:30N 38°32' W 028°34'2 3.2
2018-Feb-20 09:00N 38°32' W 028°32'4 8.6
2018-Feb-20 08:30N 38°32' W 028°37'0 0.0
2018-Feb-19 19:38N 38°32' W 028°37'0 2.1
2018-Feb-19 19:30N 38°32' W 028°37'4 8.3
2018-Feb-19 19:00N 38°32' W 028°32'2 4.3
2018-Feb-19 18:30N 38°33' W 028°34'2 4.3
2018-Feb-19 18:00N 38°32' W 028°37'0 0.0
2018-Feb-19 17:30N 38°32' W 028°37'0 0.0
2018-Feb-19 17:00N 38°32' W 028°37'0 0.0
2018-Feb-19 16:30N 38°32' W 028°37'4 8.5
2018-Feb-19 16:01N 38°32' W 028°32'2 3.6
2018-Feb-19 15:30N 38°33' W 028°34'2 5.0
2018-Feb-19 15:00N 38°32' W 028°37'0 0.0
2018-Feb-19 14:30N 38°32' W 028°37'0 0.0
2018-Feb-19 14:00N 38°32' W 028°37'0 0.0
2018-Feb-19 13:30N 38°32' W 028°37'0 0.0
2018-Feb-19 13:00N 38°32' W 028°37'4 8.5
2018-Feb-19 12:31N 38°32' W 028°32'2 3.1
2018-Feb-19 12:00N 38°32' W 028°34'3 5.3
2018-Feb-19 11:30N 38°32' W 028°37'0 0.0
2018-Feb-19 10:59N 38°32' W 028°37'0 0.0
2018-Feb-19 10:30N 38°32' W 028°37'0 0.0
2018-Feb-19 10:00N 38°32' W 028°37'3 5.1
2018-Feb-19 09:30N 38°32' W 028°34'2 3.5
2018-Feb-19 09:00N 38°32' W 028°32'4 8.5
2018-Feb-19 08:30N 38°32' W 028°37'0 0.0
2018-Feb-19 08:00N 38°32' W 028°37'0 0.0
2018-Feb-18 19:33N 38°32' W 028°37'0 0.0
2018-Feb-18 19:31N 38°32' W 028°37'4 8.3
2018-Feb-18 19:00N 38°32' W 028°32'2 4.0
2018-Feb-18 18:30N 38°32' W 028°34'2 4.6
2018-Feb-18 18:00N 38°32' W 028°37'0 0.0
2018-Feb-18 17:30N 38°32' W 028°37'0 0.0
2018-Feb-18 17:00N 38°32' W 028°37'0 0.0
2018-Feb-18 16:30N 38°32' W 028°37'4 8.5
2018-Feb-18 16:00N 38°32' W 028°32'2 3.5
2018-Feb-18 15:30N 38°32' W 028°34'2 4.9
2018-Feb-18 15:00N 38°32' W 028°37'0 0.0
2018-Feb-18 14:30N 38°32' W 028°37'0 0.0
2018-Feb-18 14:00N 38°32' W 028°37'0 0.0
2018-Feb-18 13:30N 38°32' W 028°37'0 0.2
2018-Feb-18 13:00N 38°32' W 028°37'4 8.6
2018-Feb-18 12:30N 38°32' W 028°32'2 3.9
2018-Feb-18 12:00N 38°32' W 028°34'2 4.7
2018-Feb-18 11:30N 38°32' W 028°37'0 0.0
2018-Feb-18 11:00N 38°32' W 028°37'0 0.0
2018-Feb-18 10:30N 38°32' W 028°37'0 0.0
2018-Feb-18 10:00N 38°32' W 028°37'2 4.0
2018-Feb-18 09:31N 38°32' W 028°35'2 4.6
2018-Feb-18 09:00N 38°32' W 028°32'4 8.5
2018-Feb-18 08:30N 38°32' W 028°37'0 0.0
2018-Feb-17 19:31N 38°32' W 028°37'0 0.0
2018-Feb-17 19:30N 38°32' W 028°37'4 8.5
2018-Feb-17 19:01N 38°32' W 028°32'2 3.2
2018-Feb-17 18:30N 38°32' W 028°34'3 5.3
2018-Feb-17 18:00N 38°32' W 028°37'0 0.0
2018-Feb-17 17:30N 38°32' W 028°37'0 0.0
2018-Feb-17 17:00N 38°32' W 028°37'0 0.0
2018-Feb-17 16:31N 38°32' W 028°37'4 8.3
2018-Feb-17 16:00N 38°32' W 028°32'2 3.8
2018-Feb-17 15:30N 38°32' W 028°34'2 4.8
2018-Feb-17 15:00N 38°32' W 028°37'0 0.0
2018-Feb-17 14:31N 38°32' W 028°37'0 0.0
2018-Feb-17 14:00N 38°32' W 028°37'0 0.0
2018-Feb-17 13:30N 38°32' W 028°37'0 0.0
2018-Feb-17 13:01N 38°32' W 028°37'4 8.4
2018-Feb-17 12:30N 38°32' W 028°32'1 3.0
2018-Feb-17 12:00N 38°32' W 028°34'3 5.5
2018-Feb-17 11:31N 38°32' W 028°37'0 0.0
2018-Feb-17 11:00N 38°32' W 028°37'0 0.0
2018-Feb-17 10:31N 38°32' W 028°37'0 0.0
2018-Feb-17 10:00N 38°32' W 028°37'1 2.9
2018-Feb-17 09:30N 38°32' W 028°35'3 5.6
2018-Feb-17 09:00N 38°32' W 028°32'4 8.6
2018-Feb-17 08:30N 38°32' W 028°37'0 0.0
2018-Feb-16 19:35N 38°32' W 028°37'0 0.1
2018-Feb-16 19:30N 38°32' W 028°37'4 8.5
2018-Feb-16 19:01N 38°32' W 028°32'2 3.7
2018-Feb-16 18:30N 38°32' W 028°34'2 4.8
2018-Feb-16 18:00N 38°32' W 028°37'0 0.0
2018-Feb-16 17:30N 38°32' W 028°37'0 0.0
2018-Feb-16 17:00N 38°32' W 028°37'0 0.0
2018-Feb-16 16:30N 38°32' W 028°37'4 8.4
2018-Feb-16 16:00N 38°32' W 028°32'2 3.7
2018-Feb-16 15:30N 38°32' W 028°34'2 4.7
2018-Feb-16 15:00N 38°32' W 028°37'0 0.0
2018-Feb-16 14:30N 38°32' W 028°37'0 0.0
2018-Feb-16 14:00N 38°32' W 028°37'0 0.0
2018-Feb-16 13:30N 38°32' W 028°37'0 0.0
2018-Feb-16 13:00N 38°32' W 028°37'4 8.4
2018-Feb-16 12:30N 38°32' W 028°32'2 3.3
2018-Feb-16 12:01N 38°32' W 028°34'3 5.1
2018-Feb-16 11:30N 38°32' W 028°37'0 0.0
2018-Feb-16 11:01N 38°32' W 028°37'0 0.0
2018-Feb-16 10:30N 38°32' W 028°37'0 0.0
2018-Feb-16 10:01N 38°32' W 028°37'2 4.3
2018-Feb-16 09:30N 38°32' W 028°35'2 4.2
2018-Feb-16 09:00N 38°32' W 028°32'4 8.6
2018-Feb-16 08:30N 38°32' W 028°37'0 0.0
2018-Feb-15 19:40N 38°32' W 028°37'0 2.1
2018-Feb-15 19:30N 38°32' W 028°37'4 8.2
2018-Feb-15 19:00N 38°32' W 028°32'2 3.7
2018-Feb-15 18:30N 38°32' W 028°34'2 5.0
2018-Feb-15 18:00N 38°32' W 028°37'0 0.0
2018-Feb-15 17:30N 38°32' W 028°37'0 0.0
2018-Feb-15 17:00N 38°32' W 028°37'0 0.0
2018-Feb-15 16:31N 38°32' W 028°37'4 8.5
2018-Feb-15 16:00N 38°32' W 028°32'2 5.0
2018-Feb-15 15:30N 38°32' W 028°35'2 3.7
2018-Feb-15 15:00N 38°32' W 028°37'0 0.0
2018-Feb-15 14:30N 38°32' W 028°37'0 0.0
2018-Feb-15 14:01N 38°32' W 028°37'0 0.0
2018-Feb-15 13:30N 38°32' W 028°37'0 0.0
2018-Feb-15 13:00N 38°32' W 028°37'4 8.5
2018-Feb-15 12:30N 38°32' W 028°32'2 3.3
2018-Feb-15 12:01N 38°32' W 028°34'3 5.3
2018-Feb-15 11:30N 38°32' W 028°37'0 0.0
2018-Feb-15 11:00N 38°32' W 028°37'0 0.0
2018-Feb-15 10:30N 38°32' W 028°37'0 0.0
2018-Feb-15 10:00N 38°32' W 028°37'4 7.1
2018-Feb-15 09:30N 38°33' W 028°33'1 1.6
2018-Feb-15 09:00N 38°32' W 028°32'4 8.7
2018-Feb-15 08:30N 38°32' W 028°37'0 0.3
2018-Feb-15 08:00N 38°32' W 028°37'0 0.0
2018-Feb-14 19:34N 38°32' W 028°37'0 0.3
2018-Feb-14 19:31N 38°32' W 028°37'4 8.4
2018-Feb-14 19:00N 38°32' W 028°32'3 5.3
2018-Feb-14 18:30N 38°32' W 028°35'2 3.3
2018-Feb-14 18:00N 38°32' W 028°37'  
Track history (hours):
 
Tides and Currents Weather Stations Pressure Air Temp Water Temp Dewpoint Dewpoint Depression Visibility Wind Speed Wind Dir Waves Ship Positions

Cruzeiro Do Canal

Last reported at 2018-Feb-24 18:00 UTC. Time now 2018-Feb-24 18:27 UTC.
Position N 38°32' W 028°37'.

Length 32 m; draft 2.3 m.

Type: Passenger vessel. MMSI: 204701250.

Date/timePositionNaut miles runAvg speedWind from/ knotsBaromVisibWave heightAir tempDewpointWater temp
2018-Feb-24 18:00N 38°32' W 028°37'0 0.0
2018-Feb-24 17:30N 38°32' W 028°37'0 0.0
2018-Feb-24 17:01N 38°32' W 028°37'0 0.2
2018-Feb-24 16:30N 38°32' W 028°37'4 8.6
2018-Feb-24 16:00N 38°32' W 028°32'3 6.3
2018-Feb-24 15:30N 38°33' W 028°36'1 2.3
2018-Feb-24 15:00N 38°32' W 028°37'0 0.0
2018-Feb-24 14:30N 38°32' W 028°37'0 0.0
2018-Feb-24 14:00N 38°32' W 028°37'0 0.0
2018-Feb-24 13:30N 38°32' W 028°37'0 0.0
2018-Feb-24 13:00N 38°32' W 028°37'4 8.4
2018-Feb-24 12:30N 38°32' W 028°32'2 4.2
2018-Feb-24 12:00N 38°33' W 028°34'2 4.5
2018-Feb-24 11:30N 38°32' W 028°37'0 0.0
2018-Feb-24 11:00N 38°32' W 028°37'0 0.0
2018-Feb-24 10:30N 38°32' W 028°37'0 0.0
2018-Feb-24 10:00N 38°32' W 028°37'2 4.3
2018-Feb-24 09:30N 38°32' W 028°35'2 4.2
2018-Feb-24 09:00N 38°32' W 028°32'4 8.7
2018-Feb-24 08:30N 38°32' W 028°37'0 0.0
2018-Feb-23 19:32N 38°32' W 028°37'0 0.2
2018-Feb-23 19:30N 38°32' W 028°37'4 8.5
2018-Feb-23 19:00N 38°32' W 028°32'2 3.5
2018-Feb-23 18:31N 38°32' W 028°34'3 5.2
2018-Feb-23 18:00N 38°32' W 028°37'0 0.0
2018-Feb-23 17:30N 38°32' W 028°37'0 0.0
2018-Feb-23 17:00N 38°32' W 028°37'0 0.0
2018-Feb-23 16:30N 38°32' W 028°37'4 8.5
2018-Feb-23 16:00N 38°32' W 028°32'2 3.9
2018-Feb-23 15:30N 38°32' W 028°34'2 4.8
2018-Feb-23 15:01N 38°32' W 028°37'0 0.0
2018-Feb-23 14:30N 38°32' W 028°37'0 0.0
2018-Feb-23 14:00N 38°32' W 028°37'0 0.0
2018-Feb-23 13:30N 38°32' W 028°37'0 0.2
2018-Feb-23 13:00N 38°32' W 028°37'4 8.6
2018-Feb-23 12:31N 38°32' W 028°32'2 3.2
2018-Feb-23 12:00N 38°32' W 028°34'3 5.2
2018-Feb-23 11:30N 38°32' W 028°37'0 0.0
2018-Feb-23 11:00N 38°32' W 028°37'0 0.0
2018-Feb-23 10:30N 38°32' W 028°37'0 0.0
2018-Feb-23 10:00N 38°32' W 028°37'3 6.3
2018-Feb-23 09:30N 38°33' W 028°33'1 2.8
2018-Feb-23 09:01N 38°32' W 028°32'4 8.5
2018-Feb-23 08:30N 38°32' W 028°37'0 0.1
2018-Feb-23 08:00N 38°32' W 028°37'0 0.0
2018-Feb-22 19:32N 38°32' W 028°37'0 0.0
2018-Feb-22 19:30N 38°32' W 028°37'4 8.5
2018-Feb-22 19:00N 38°32' W 028°32'2 4.2
2018-Feb-22 18:30N 38°33' W 028°34'2 4.4
2018-Feb-22 18:01N 38°32' W 028°37'0 0.0
2018-Feb-22 17:30N 38°32' W 028°37'0 0.0
2018-Feb-22 17:00N 38°32' W 028°37'0 0.1
2018-Feb-22 16:30N 38°32' W 028°37'4 6.8
2018-Feb-22 15:52N 38°32' W 028°32'2 4.3
2018-Feb-22 15:30N 38°32' W 028°34'3 5.6
2018-Feb-22 15:00N 38°32' W 028°37'0 0.0
2018-Feb-22 14:30N 38°32' W 028°37'0 0.0
2018-Feb-22 14:00N 38°32' W 028°37'0 0.0
2018-Feb-22 13:30N 38°32' W 028°37'0 0.0
2018-Feb-22 13:01N 38°32' W 028°37'4 8.4
2018-Feb-22 12:30N 38°32' W 028°32'2 3.6
2018-Feb-22 12:00N 38°32' W 028°34'3 5.3
2018-Feb-22 11:30N 38°32' W 028°37'0 0.0
2018-Feb-22 11:00N 38°32' W 028°37'0 0.0
2018-Feb-22 10:31N 38°32' W 028°37'0 0.0
2018-Feb-22 10:00N 38°32' W 028°37'3 5.6
2018-Feb-22 09:30N 38°32' W 028°34'1 2.9
2018-Feb-22 09:01N 38°32' W 028°32'4 8.6
2018-Feb-22 08:30N 38°32' W 028°37'0 0.3
2018-Feb-22 08:00N 38°32' W 028°37'0 0.0
2018-Feb-21 19:34N 38°32' W 028°37'0 0.6
2018-Feb-21 19:30N 38°32' W 028°37'4 8.5
2018-Feb-21 19:00N 38°32' W 028°32'2 4.6
2018-Feb-21 18:30N 38°32' W 028°35'2 3.9
2018-Feb-21 18:00N 38°32' W 028°37'0 0.0
2018-Feb-21 17:30N 38°32' W 028°37'0 0.0
2018-Feb-21 17:00N 38°32' W 028°37'0 0.0
2018-Feb-21 16:30N 38°32' W 028°37'4 8.4
2018-Feb-21 16:01N 38°32' W 028°32'2 4.1
2018-Feb-21 15:30N 38°32' W 028°35'2 4.2
2018-Feb-21 15:00N 38°32' W 028°37'0 0.0
2018-Feb-21 14:30N 38°32' W 028°37'0 0.0
2018-Feb-21 14:00N 38°32' W 028°37'0 0.0
2018-Feb-21 13:30N 38°32' W 028°37'1 2.5
2018-Feb-21 13:00N 38°33' W 028°36'3 6.7
2018-Feb-21 12:30N 38°32' W 028°32'2 4.7
2018-Feb-21 12:00N 38°32' W 028°35'2 3.9
2018-Feb-21 11:30N 38°32' W 028°37'0 0.0
2018-Feb-21 11:00N 38°32' W 028°37'0 0.0
2018-Feb-21 10:30N 38°32' W 028°37'0 0.8
2018-Feb-21 10:00N 38°32' W 028°37'4 8.0
2018-Feb-21 09:31N 38°32' W 028°32'0 0.4
2018-Feb-21 09:00N 38°32' W 028°32'4 8.1
2018-Feb-21 08:30N 38°32' W 028°37'0 0.1
2018-Feb-21 08:00N 38°32' W 028°37'0 0.0
2018-Feb-20 19:58N 38°32' W 028°37'0 0.1
2018-Feb-20 19:30N 38°32' W 028°37'4 8.5
2018-Feb-20 19:00N 38°32' W 028°32'3 5.2
2018-Feb-20 18:30N 38°32' W 028°35'2 3.4
2018-Feb-20 18:00N 38°32' W 028°37'0 0.0
2018-Feb-20 17:30N 38°32' W 028°37'0 0.0
2018-Feb-20 17:00N 38°32' W 028°37'0 0.0
2018-Feb-20 16:30N 38°32' W 028°37'4 8.4
2018-Feb-20 16:00N 38°32' W 028°32'2 4.1
2018-Feb-20 15:30N 38°33' W 028°34'2 4.3
2018-Feb-20 15:00N 38°32' W 028°37'0 0.0
2018-Feb-20 14:30N 38°32' W 028°37'0 0.0
2018-Feb-20 14:00N 38°32' W 028°37'0 0.0
2018-Feb-20 13:30N 38°32' W 028°37'0 0.4
2018-Feb-20 13:01N 38°32' W 028°37'4 8.6
2018-Feb-20 12:31N 38°32' W 028°32'2 4.8
2018-Feb-20 12:00N 38°32' W 028°35'2 3.7
2018-Feb-20 11:30N 38°32' W 028°37'0 0.0
2018-Feb-20 11:00N 38°32' W 028°37'0 0.0
2018-Feb-20 10:30N 38°32' W 028°37'0 0.0
2018-Feb-20 10:00N 38°32' W 028°37'3 5.8
2018-Feb-20 09:30N 38°32' W 028°34'2 3.2
2018-Feb-20 09:00N 38°32' W 028°32'4 8.6
2018-Feb-20 08:30N 38°32' W 028°37'0 0.0
2018-Feb-19 19:38N 38°32' W 028°37'0 2.1
2018-Feb-19 19:30N 38°32' W 028°37'4 8.3
2018-Feb-19 19:00N 38°32' W 028°32'2 4.3
2018-Feb-19 18:30N 38°33' W 028°34'2 4.3
2018-Feb-19 18:00N 38°32' W 028°37'0 0.0
2018-Feb-19 17:30N 38°32' W 028°37'0 0.0
2018-Feb-19 17:00N 38°32' W 028°37'0 0.0
2018-Feb-19 16:30N 38°32' W 028°37'4 8.5
2018-Feb-19 16:01N 38°32' W 028°32'2 3.6
2018-Feb-19 15:30N 38°33' W 028°34'2 5.0
2018-Feb-19 15:00N 38°32' W 028°37'0 0.0
2018-Feb-19 14:30N 38°32' W 028°37'0 0.0
2018-Feb-19 14:00N 38°32' W 028°37'0 0.0
2018-Feb-19 13:30N 38°32' W 028°37'0 0.0
2018-Feb-19 13:00N 38°32' W 028°37'4 8.5
2018-Feb-19 12:31N 38°32' W 028°32'2 3.1
2018-Feb-19 12:00N 38°32' W 028°34'3 5.3
2018-Feb-19 11:30N 38°32' W 028°37'0 0.0
2018-Feb-19 10:59N 38°32' W 028°37'0 0.0
2018-Feb-19 10:30N 38°32' W 028°37'0 0.0
2018-Feb-19 10:00N 38°32' W 028°37'3 5.1
2018-Feb-19 09:30N 38°32' W 028°34'2 3.5
2018-Feb-19 09:00N 38°32' W 028°32'4 8.5
2018-Feb-19 08:30N 38°32' W 028°37'0 0.0
2018-Feb-19 08:00N 38°32' W 028°37'0 0.0
2018-Feb-18 19:33N 38°32' W 028°37'0 0.0
2018-Feb-18 19:31N 38°32' W 028°37'4 8.3
2018-Feb-18 19:00N 38°32' W 028°32'2 4.0
2018-Feb-18 18:30N 38°32' W 028°34'2 4.6
2018-Feb-18 18:00N 38°32' W 028°37'0 0.0
2018-Feb-18 17:30N 38°32' W 028°37'0 0.0
2018-Feb-18 17:00N 38°32' W 028°37'0 0.0
2018-Feb-18 16:30N 38°32' W 028°37'4 8.5
2018-Feb-18 16:00N 38°32' W 028°32'2 3.5
2018-Feb-18 15:30N 38°32' W 028°34'2 4.9
2018-Feb-18 15:00N 38°32' W 028°37'0 0.0
2018-Feb-18 14:30N 38°32' W 028°37'0 0.0
2018-Feb-18 14:00N 38°32' W 028°37'0 0.0
2018-Feb-18 13:30N 38°32' W 028°37'0 0.2
2018-Feb-18 13:00N 38°32' W 028°37'4 8.6
2018-Feb-18 12:30N 38°32' W 028°32'2 3.9
2018-Feb-18 12:00N 38°32' W 028°34'2 4.7
2018-Feb-18 11:30N 38°32' W 028°37'0 0.0
2018-Feb-18 11:00N 38°32' W 028°37'0 0.0
2018-Feb-18 10:30N 38°32' W 028°37'0 0.0
2018-Feb-18 10:00N 38°32' W 028°37'2 4.0
2018-Feb-18 09:31N 38°32' W 028°35'2 4.6
2018-Feb-18 09:00N 38°32' W 028°32'4 8.5
2018-Feb-18 08:30N 38°32' W 028°37'0 0.0
2018-Feb-17 19:31N 38°32' W 028°37'0 0.0
2018-Feb-17 19:30N 38°32' W 028°37'4 8.5
2018-Feb-17 19:01N 38°32' W 028°32'2 3.2
2018-Feb-17 18:30N 38°32' W 028°34'3 5.3
2018-Feb-17 18:00N 38°32' W 028°37'0 0.0
2018-Feb-17 17:30N 38°32' W 028°37'0 0.0
2018-Feb-17 17:00N 38°32' W 028°37'0 0.0
2018-Feb-17 16:31N 38°32' W 028°37'4 8.3
2018-Feb-17 16:00N 38°32' W 028°32'2 3.8
2018-Feb-17 15:30N 38°32' W 028°34'2 4.8
2018-Feb-17 15:00N 38°32' W 028°37'0 0.0
2018-Feb-17 14:31N 38°32' W 028°37'0 0.0
2018-Feb-17 14:00N 38°32' W 028°37'0 0.0
2018-Feb-17 13:30N 38°32' W 028°37'0 0.0
2018-Feb-17 13:01N 38°32' W 028°37'4 8.4
2018-Feb-17 12:30N 38°32' W 028°32'1 3.0
2018-Feb-17 12:00N 38°32' W 028°34'3 5.5
2018-Feb-17 11:31N 38°32' W 028°37'0 0.0
2018-Feb-17 11:00N 38°32' W 028°37'0 0.0
2018-Feb-17 10:31N 38°32' W 028°37'0 0.0
2018-Feb-17 10:00N 38°32' W 028°37'1 2.9
2018-Feb-17 09:30N 38°32' W 028°35'3 5.6
2018-Feb-17 09:00N 38°32' W 028°32'4 8.6
2018-Feb-17 08:30N 38°32' W 028°37'0 0.0
2018-Feb-16 19:35N 38°32' W 028°37'0 0.1
2018-Feb-16 19:30N 38°32' W 028°37'4 8.5
2018-Feb-16 19:01N 38°32' W 028°32'2 3.7
2018-Feb-16 18:30N 38°32' W 028°34'2 4.8
2018-Feb-16 18:00N 38°32' W 028°37'0 0.0
2018-Feb-16 17:30N 38°32' W 028°37'0 0.0
2018-Feb-16 17:00N 38°32' W 028°37'0 0.0
2018-Feb-16 16:30N 38°32' W 028°37'4 8.4
2018-Feb-16 16:00N 38°32' W 028°32'2 3.7
2018-Feb-16 15:30N 38°32' W 028°34'2 4.7
2018-Feb-16 15:00N 38°32' W 028°37'0 0.0
2018-Feb-16 14:30N 38°32' W 028°37'0 0.0
2018-Feb-16 14:00N 38°32' W 028°37'0 0.0
2018-Feb-16 13:30N 38°32' W 028°37'0 0.0
2018-Feb-16 13:00N 38°32' W 028°37'4 8.4
2018-Feb-16 12:30N 38°32' W 028°32'2 3.3
2018-Feb-16 12:01N 38°32' W 028°34'3 5.1
2018-Feb-16 11:30N 38°32' W 028°37'0 0.0
2018-Feb-16 11:01N 38°32' W 028°37'0 0.0
2018-Feb-16 10:30N 38°32' W 028°37'0 0.0
2018-Feb-16 10:01N 38°32' W 028°37'2 4.3
2018-Feb-16 09:30N 38°32' W 028°35'2 4.2
2018-Feb-16 09:00N 38°32' W 028°32'4 8.6
2018-Feb-16 08:30N 38°32' W 028°37'0 0.0
2018-Feb-15 19:40N 38°32' W 028°37'0 2.1
2018-Feb-15 19:30N 38°32' W 028°37'4 8.2
2018-Feb-15 19:00N 38°32' W 028°32'2 3.7
2018-Feb-15 18:30N 38°32' W 028°34'2 5.0
2018-Feb-15 18:00N 38°32' W 028°37'0 0.0
2018-Feb-15 17:30N 38°32' W 028°37'0 0.0
2018-Feb-15 17:00N 38°32' W 028°37'0 0.0
2018-Feb-15 16:31N 38°32' W 028°37'4 8.5
2018-Feb-15 16:00N 38°32' W 028°32'2 5.0
2018-Feb-15 15:30N 38°32' W 028°35'2 3.7
2018-Feb-15 15:00N 38°32' W 028°37'0 0.0
2018-Feb-15 14:30N 38°32' W 028°37'0 0.0
2018-Feb-15 14:01N 38°32' W 028°37'0 0.0
2018-Feb-15 13:30N 38°32' W 028°37'0 0.0
2018-Feb-15 13:00N 38°32' W 028°37'4 8.5
2018-Feb-15 12:30N 38°32' W 028°32'2 3.3
2018-Feb-15 12:01N 38°32' W 028°34'3 5.3
2018-Feb-15 11:30N 38°32' W 028°37'0 0.0
2018-Feb-15 11:00N 38°32' W 028°37'0 0.0
2018-Feb-15 10:30N 38°32' W 028°37'0 0.0
2018-Feb-15 10:00N 38°32' W 028°37'4 7.1
2018-Feb-15 09:30N 38°33' W 028°33'1 1.6
2018-Feb-15 09:00N 38°32' W 028°32'4 8.7
2018-Feb-15 08:30N 38°32' W 028°37'0 0.3
2018-Feb-15 08:00N 38°32' W 028°37'0 0.0
2018-Feb-14 19:34N 38°32' W 028°37'0 0.3
2018-Feb-14 19:31N 38°32' W 028°37'4 8.4
2018-Feb-14 19:00N 38°32' W 028°32'3 5.3
2018-Feb-14 18:30N 38°32' W 028°35'2 3.3
2018-Feb-14 18:00N 38°32' W 028°37'  

Dump ship's entire track history